sensor_id;sensor_type;location;lat;lon;timestamp;pressure;altitude;pressure_sealevel;temperature;humidity
79461;BME280;68929;42.666;23.324;2023-12-20T00:00:01;94900.28;;;10.27;51.14
79461;BME280;68929;42.666;23.324;2023-12-20T00:02:27;94881.16;;;10.32;51.50
79461;BME280;68929;42.666;23.324;2023-12-20T00:04:52;94902.28;;;10.45;51.16
79461;BME280;68929;42.666;23.324;2023-12-20T00:07:17;94894.19;;;10.20;50.45
79461;BME280;68929;42.666;23.324;2023-12-20T00:09:43;94875.06;;;10.31;50.77
79461;BME280;68929;42.666;23.324;2023-12-20T00:12:09;94885.63;;;10.38;50.15
79461;BME280;68929;42.666;23.324;2023-12-20T00:14:35;94890.31;;;10.29;51.23
79461;BME280;68929;42.666;23.324;2023-12-20T00:17:00;94879.50;;;10.51;51.31
79461;BME280;68929;42.666;23.324;2023-12-20T00:19:25;94833.63;;;10.19;51.37
79461;BME280;68929;42.666;23.324;2023-12-20T00:21:51;94872.56;;;10.50;51.04
79461;BME280;68929;42.666;23.324;2023-12-20T00:24:19;94878.88;;;10.62;50.91
79461;BME280;68929;42.666;23.324;2023-12-20T00:26:45;94879.25;;;10.72;50.99
79461;BME280;68929;42.666;23.324;2023-12-20T00:29:12;94820.16;;;10.47;51.06
79461;BME280;68929;42.666;23.324;2023-12-20T00:31:37;94848.53;;;10.71;50.67
79461;BME280;68929;42.666;23.324;2023-12-20T00:34:02;94870.22;;;10.92;49.97
79461;BME280;68929;42.666;23.324;2023-12-20T00:36:28;94863.50;;;10.90;49.68
79461;BME280;68929;42.666;23.324;2023-12-20T00:38:53;94833.84;;;10.75;49.67
79461;BME280;68929;42.666;23.324;2023-12-20T00:41:19;94828.44;;;10.57;49.81
79461;BME280;68929;42.666;23.324;2023-12-20T00:43:44;94830.69;;;10.60;49.81
79461;BME280;68929;42.666;23.324;2023-12-20T00:46:09;94843.91;;;10.60;50.18
79461;BME280;68929;42.666;23.324;2023-12-20T00:48:35;94809.59;;;10.47;50.24
79461;BME280;68929;42.666;23.324;2023-12-20T00:51:00;94844.50;;;10.62;50.30
79461;BME280;68929;42.666;23.324;2023-12-20T00:53:26;94844.91;;;10.59;49.18
79461;BME280;68929;42.666;23.324;2023-12-20T00:55:51;94840.94;;;10.04;51.87
79461;BME280;68929;42.666;23.324;2023-12-20T00:58:16;94835.69;;;9.84;51.43
79461;BME280;68929;42.666;23.324;2023-12-20T01:00:42;94840.13;;;10.16;51.98
79461;BME280;68929;42.666;23.324;2023-12-20T01:03:08;94812.50;;;10.19;51.69
79461;BME280;68929;42.666;23.324;2023-12-20T01:05:33;94812.47;;;10.32;50.70
79461;BME280;68929;42.666;23.324;2023-12-20T01:07:59;94785.63;;;10.28;50.71
79461;BME280;68929;42.666;23.324;2023-12-20T01:10:25;94790.13;;;10.34;50.31
79461;BME280;68929;42.666;23.324;2023-12-20T01:12:53;94814.50;;;10.36;50.69
79461;BME280;68929;42.666;23.324;2023-12-20T01:15:18;94806.34;;;10.44;50.57
79461;BME280;68929;42.666;23.324;2023-12-20T01:17:44;94825.44;;;10.47;50.19
79461;BME280;68929;42.666;23.324;2023-12-20T01:20:09;94823.97;;;10.64;50.38
79461;BME280;68929;42.666;23.324;2023-12-20T01:22:35;94807.88;;;10.65;50.46
79461;BME280;68929;42.666;23.324;2023-12-20T01:25:01;94818.03;;;10.68;50.28
79461;BME280;68929;42.666;23.324;2023-12-20T01:27:27;94805.47;;;10.64;50.65
79461;BME280;68929;42.666;23.324;2023-12-20T01:29:53;94807.25;;;10.70;49.85
79461;BME280;68929;42.666;23.324;2023-12-20T01:32:18;94787.31;;;10.67;49.42
79461;BME280;68929;42.666;23.324;2023-12-20T01:34:43;94773.78;;;10.51;50.27
79461;BME280;68929;42.666;23.324;2023-12-20T01:37:09;94775.88;;;10.35;50.60
79461;BME280;68929;42.666;23.324;2023-12-20T01:39:34;94776.44;;;10.44;50.27
79461;BME280;68929;42.666;23.324;2023-12-20T01:41:59;94769.31;;;10.51;49.63
79461;BME280;68929;42.666;23.324;2023-12-20T01:44:25;94768.47;;;10.57;49.67
79461;BME280;68929;42.666;23.324;2023-12-20T01:46:50;94777.44;;;10.43;49.87
79461;BME280;68929;42.666;23.324;2023-12-20T01:49:16;94747.88;;;10.21;50.32
79461;BME280;68929;42.666;23.324;2023-12-20T01:51:42;94772.94;;;10.57;49.71
79461;BME280;68929;42.666;23.324;2023-12-20T01:54:08;94770.56;;;10.42;50.51
79461;BME280;68929;42.666;23.324;2023-12-20T01:56:34;94732.38;;;10.31;50.01
79461;BME280;68929;42.666;23.324;2023-12-20T01:59:00;94756.75;;;10.40;50.44
79461;BME280;68929;42.666;23.324;2023-12-20T02:01:26;94751.09;;;10.36;49.72
79461;BME280;68929;42.666;23.324;2023-12-20T02:03:53;94757.19;;;10.30;50.54
79461;BME280;68929;42.666;23.324;2023-12-20T02:06:21;94758.00;;;10.31;49.96
79461;BME280;68929;42.666;23.324;2023-12-20T02:08:49;94705.03;;;10.13;50.52
79461;BME280;68929;42.666;23.324;2023-12-20T02:11:15;94744.88;;;10.56;49.83
79461;BME280;68929;42.666;23.324;2023-12-20T02:13:43;94725.84;;;10.40;50.00
79461;BME280;68929;42.666;23.324;2023-12-20T02:16:09;94718.91;;;10.46;49.69
79461;BME280;68929;42.666;23.324;2023-12-20T02:18:34;94750.59;;;10.53;49.46
79461;BME280;68929;42.666;23.324;2023-12-20T02:20:59;94729.56;;;10.26;48.89
79461;BME280;68929;42.666;23.324;2023-12-20T02:23:25;94737.38;;;10.53;49.47
79461;BME280;68929;42.666;23.324;2023-12-20T02:25:50;94706.00;;;10.18;49.36
79461;BME280;68929;42.666;23.324;2023-12-20T02:28:16;94722.22;;;10.28;49.49
79461;BME280;68929;42.666;23.324;2023-12-20T02:30:42;94719.41;;;10.23;49.90
79461;BME280;68929;42.666;23.324;2023-12-20T02:33:08;94730.34;;;10.33;50.35
79461;BME280;68929;42.666;23.324;2023-12-20T02:35:36;94717.31;;;10.45;49.98
79461;BME280;68929;42.666;23.324;2023-12-20T02:38:02;94719.38;;;10.36;49.81
79461;BME280;68929;42.666;23.324;2023-12-20T02:40:27;94713.50;;;10.34;50.00
79461;BME280;68929;42.666;23.324;2023-12-20T02:42:52;94693.66;;;10.12;50.91
79461;BME280;68929;42.666;23.324;2023-12-20T02:45:18;94695.69;;;10.55;50.02
79461;BME280;68929;42.666;23.324;2023-12-20T02:47:43;94683.03;;;10.25;49.81
79461;BME280;68929;42.666;23.324;2023-12-20T02:50:09;94712.91;;;10.26;50.22
79461;BME280;68929;42.666;23.324;2023-12-20T02:52:34;94700.69;;;10.31;50.52
79461;BME280;68929;42.666;23.324;2023-12-20T02:54:59;94709.22;;;10.33;50.34
79461;BME280;68929;42.666;23.324;2023-12-20T02:57:25;94646.44;;;9.78;50.63
79461;BME280;68929;42.666;23.324;2023-12-20T02:59:50;94706.25;;;10.10;50.99
79461;BME280;68929;42.666;23.324;2023-12-20T03:02:15;94709.66;;;10.30;51.03
79461;BME280;68929;42.666;23.324;2023-12-20T03:04:41;94700.63;;;10.44;50.10
79461;BME280;68929;42.666;23.324;2023-12-20T03:07:06;94676.78;;;10.20;49.99
79461;BME280;68929;42.666;23.324;2023-12-20T03:09:32;94699.09;;;10.24;50.61
79461;BME280;68929;42.666;23.324;2023-12-20T03:11:57;94705.00;;;10.26;50.97
79461;BME280;68929;42.666;23.324;2023-12-20T03:14:22;94696.22;;;10.32;50.21
79461;BME280;68929;42.666;23.324;2023-12-20T03:16:51;94669.88;;;10.12;49.94
79461;BME280;68929;42.666;23.324;2023-12-20T03:19:17;94704.31;;;10.37;49.86
79461;BME280;68929;42.666;23.324;2023-12-20T03:21:44;94637.06;;;9.89;50.16
79461;BME280;68929;42.666;23.324;2023-12-20T03:24:10;94669.06;;;10.12;49.83
79461;BME280;68929;42.666;23.324;2023-12-20T03:26:35;94698.94;;;10.57;49.53
79461;BME280;68929;42.666;23.324;2023-12-20T03:29:01;94666.53;;;10.36;47.70
79461;BME280;68929;42.666;23.324;2023-12-20T03:31:26;94695.03;;;10.28;49.22
79461;BME280;68929;42.666;23.324;2023-12-20T03:33:51;94685.38;;;9.89;50.13
79461;BME280;68929;42.666;23.324;2023-12-20T03:36:19;94685.34;;;10.02;49.61
79461;BME280;68929;42.666;23.324;2023-12-20T03:38:44;94678.03;;;10.11;49.26
79461;BME280;68929;42.666;23.324;2023-12-20T03:41:13;94679.94;;;10.28;49.99
79461;BME280;68929;42.666;23.324;2023-12-20T03:43:39;94682.19;;;10.31;49.57
79461;BME280;68929;42.666;23.324;2023-12-20T03:46:04;94641.31;;;9.83;49.20
79461;BME280;68929;42.666;23.324;2023-12-20T03:48:32;94693.63;;;10.06;49.35
79461;BME280;68929;42.666;23.324;2023-12-20T03:50:58;94686.34;;;10.01;49.83
79461;BME280;68929;42.666;23.324;2023-12-20T03:53:23;94659.75;;;10.03;49.43
79461;BME280;68929;42.666;23.324;2023-12-20T03:55:48;94663.22;;;9.97;49.39
79461;BME280;68929;42.666;23.324;2023-12-20T03:58:14;94684.13;;;9.98;49.70
79461;BME280;68929;42.666;23.324;2023-12-20T04:00:39;94676.56;;;10.08;49.21
79461;BME280;68929;42.666;23.324;2023-12-20T04:03:04;94683.53;;;9.96;49.48
79461;BME280;68929;42.666;23.324;2023-12-20T04:05:30;94670.13;;;9.91;48.54
79461;BME280;68929;42.666;23.324;2023-12-20T04:08:01;94628.47;;;9.93;49.02
79461;BME280;68929;42.666;23.324;2023-12-20T04:10:27;94628.72;;;8.36;46.47
79461;BME280;68929;42.666;23.324;2023-12-20T04:12:52;94671.22;;;7.39;53.63
79461;BME280;68929;42.666;23.324;2023-12-20T04:15:17;94653.66;;;7.93;54.63
79461;BME280;68929;42.666;23.324;2023-12-20T04:17:43;94641.69;;;8.64;52.07
79461;BME280;68929;42.666;23.324;2023-12-20T04:20:08;94624.69;;;8.93;50.76
79461;BME280;68929;42.666;23.324;2023-12-20T04:22:34;94657.50;;;9.42;49.91
79461;BME280;68929;42.666;23.324;2023-12-20T04:24:59;94632.53;;;9.45;49.54
79461;BME280;68929;42.666;23.324;2023-12-20T04:27:25;94652.59;;;9.46;48.09
79461;BME280;68929;42.666;23.324;2023-12-20T04:29:50;94650.84;;;8.88;50.30
79461;BME280;68929;42.666;23.324;2023-12-20T04:32:15;94641.13;;;7.13;53.72
79461;BME280;68929;42.666;23.324;2023-12-20T04:34:41;94646.28;;;7.69;53.90
79461;BME280;68929;42.666;23.324;2023-12-20T04:37:06;94577.72;;;6.61;54.34
79461;BME280;68929;42.666;23.324;2023-12-20T04:39:32;94578.66;;;5.84;55.39
79461;BME280;68929;42.666;23.324;2023-12-20T04:41:58;94639.06;;;6.54;57.81
79461;BME280;68929;42.666;23.324;2023-12-20T04:44:23;94628.88;;;7.68;55.29
79461;BME280;68929;42.666;23.324;2023-12-20T04:46:49;94640.06;;;7.36;53.59
79461;BME280;68929;42.666;23.324;2023-12-20T04:49:14;94616.66;;;6.30;57.05
79461;BME280;68929;42.666;23.324;2023-12-20T04:51:40;94609.84;;;7.66;55.75
79461;BME280;68929;42.666;23.324;2023-12-20T04:54:05;94615.06;;;9.37;51.11
79461;BME280;68929;42.666;23.324;2023-12-20T04:56:30;94630.53;;;9.34;46.50
79461;BME280;68929;42.666;23.324;2023-12-20T04:58:56;94626.25;;;9.33;50.16
79461;BME280;68929;42.666;23.324;2023-12-20T05:01:21;94624.22;;;9.35;49.65
79461;BME280;68929;42.666;23.324;2023-12-20T05:03:47;94623.34;;;9.54;48.40
79461;BME280;68929;42.666;23.324;2023-12-20T05:06:12;94611.03;;;9.35;48.95
79461;BME280;68929;42.666;23.324;2023-12-20T05:08:38;94591.19;;;9.13;49.19
79461;BME280;68929;42.666;23.324;2023-12-20T05:11:04;94577.19;;;9.19;49.72
79461;BME280;68929;42.666;23.324;2023-12-20T05:13:29;94601.53;;;9.01;48.00
79461;BME280;68929;42.666;23.324;2023-12-20T05:15:55;94616.31;;;6.88;53.13
79461;BME280;68929;42.666;23.324;2023-12-20T05:18:21;94582.97;;;6.61;56.32
79461;BME280;68929;42.666;23.324;2023-12-20T05:20:47;94614.38;;;7.03;54.60
79461;BME280;68929;42.666;23.324;2023-12-20T05:23:12;94607.66;;;7.28;53.56
79461;BME280;68929;42.666;23.324;2023-12-20T05:25:38;94610.59;;;7.53;54.79
79461;BME280;68929;42.666;23.324;2023-12-20T05:28:04;94552.63;;;7.81;52.52
79461;BME280;68929;42.666;23.324;2023-12-20T05:30:29;94586.78;;;7.68;53.05
79461;BME280;68929;42.666;23.324;2023-12-20T05:32:55;94583.31;;;8.28;52.16
79461;BME280;68929;42.666;23.324;2023-12-20T05:35:20;94603.19;;;8.30;51.44
79461;BME280;68929;42.666;23.324;2023-12-20T05:37:47;94585.22;;;7.80;51.24
79461;BME280;68929;42.666;23.324;2023-12-20T05:40:12;94591.56;;;7.45;53.63
79461;BME280;68929;42.666;23.324;2023-12-20T05:42:38;94582.41;;;8.01;52.25
79461;BME280;68929;42.666;23.324;2023-12-20T05:45:04;94596.53;;;7.74;51.79
79461;BME280;68929;42.666;23.324;2023-12-20T05:47:30;94586.31;;;7.45;52.18
79461;BME280;68929;42.666;23.324;2023-12-20T05:49:55;94574.22;;;7.57;52.89
79461;BME280;68929;42.666;23.324;2023-12-20T05:52:21;94543.16;;;8.06;51.04
79461;BME280;68929;42.666;23.324;2023-12-20T05:54:47;94587.72;;;8.21;50.41
79461;BME280;68929;42.666;23.324;2023-12-20T05:57:12;94589.03;;;8.51;51.39
79461;BME280;68929;42.666;23.324;2023-12-20T05:59:38;94591.03;;;8.42;50.85
79461;BME280;68929;42.666;23.324;2023-12-20T06:02:03;94552.03;;;7.92;50.21
79461;BME280;68929;42.666;23.324;2023-12-20T06:04:30;94565.44;;;8.17;53.17
79461;BME280;68929;42.666;23.324;2023-12-20T06:06:55;94576.00;;;9.02;50.78
79461;BME280;68929;42.666;23.324;2023-12-20T06:09:21;94578.06;;;8.34;47.34
79461;BME280;68929;42.666;23.324;2023-12-20T06:11:46;94579.38;;;7.37;52.69
79461;BME280;68929;42.666;23.324;2023-12-20T06:14:12;94569.75;;;7.64;53.22
79461;BME280;68929;42.666;23.324;2023-12-20T06:16:37;94562.56;;;7.92;52.61
79461;BME280;68929;42.666;23.324;2023-12-20T06:19:03;94553.28;;;7.36;49.82
79461;BME280;68929;42.666;23.324;2023-12-20T06:21:28;94570.72;;;6.47;56.11
79461;BME280;68929;42.666;23.324;2023-12-20T06:23:54;94569.22;;;6.59;51.72
79461;BME280;68929;42.666;23.324;2023-12-20T06:26:23;94590.94;;;5.68;58.55
79461;BME280;68929;42.666;23.324;2023-12-20T06:28:48;94551.34;;;5.99;57.68
79461;BME280;68929;42.666;23.324;2023-12-20T06:31:14;94541.59;;;5.57;56.07
79461;BME280;68929;42.666;23.324;2023-12-20T06:33:40;94518.75;;;5.51;56.59
79461;BME280;68929;42.666;23.324;2023-12-20T06:36:11;94602.25;;;5.33;56.12
79461;BME280;68929;42.666;23.324;2023-12-20T06:38:37;94584.88;;;5.03;58.58
79461;BME280;68929;42.666;23.324;2023-12-20T06:41:03;94586.22;;;5.43;60.41
79461;BME280;68929;42.666;23.324;2023-12-20T06:43:28;94557.56;;;5.77;59.31
79461;BME280;68929;42.666;23.324;2023-12-20T06:45:55;94565.28;;;6.76;56.25
79461;BME280;68929;42.666;23.324;2023-12-20T06:48:20;94547.72;;;6.49;55.84
79461;BME280;68929;42.666;23.324;2023-12-20T06:50:46;94568.19;;;6.88;56.16
79461;BME280;68929;42.666;23.324;2023-12-20T06:53:14;94565.91;;;7.12;53.00
79461;BME280;68929;42.666;23.324;2023-12-20T06:55:39;94521.94;;;6.59;55.38
79461;BME280;68929;42.666;23.324;2023-12-20T06:58:05;94550.22;;;6.08;53.26
79461;BME280;68929;42.666;23.324;2023-12-20T07:00:30;94527.00;;;5.48;55.53
79461;BME280;68929;42.666;23.324;2023-12-20T07:02:56;94543.47;;;4.63;58.72
79461;BME280;68929;42.666;23.324;2023-12-20T07:05:21;94564.84;;;4.81;61.64
79461;BME280;68929;42.666;23.324;2023-12-20T07:07:47;94557.47;;;5.35;61.13
79461;BME280;68929;42.666;23.324;2023-12-20T07:10:21;94565.94;;;5.01;58.66
79461;BME280;68929;42.666;23.324;2023-12-20T07:12:47;94563.00;;;4.38;61.85
79461;BME280;68929;42.666;23.324;2023-12-20T07:15:14;94551.81;;;3.92;61.63
79461;BME280;68929;42.666;23.324;2023-12-20T07:17:39;94559.19;;;4.26;62.29
79461;BME280;68929;42.666;23.324;2023-12-20T07:20:05;94485.28;;;3.49;64.46
79461;BME280;68929;42.666;23.324;2023-12-20T07:22:40;94535.63;;;3.88;64.88
79461;BME280;68929;42.666;23.324;2023-12-20T07:25:13;94498.31;;;4.46;62.23
79461;BME280;68929;42.666;23.324;2023-12-20T07:27:39;94487.59;;;5.21;63.22
79461;BME280;68929;42.666;23.324;2023-12-20T07:30:04;94515.53;;;5.71;59.01
79461;BME280;68929;42.666;23.324;2023-12-20T07:32:30;94524.50;;;4.90;59.21
79461;BME280;68929;42.666;23.324;2023-12-20T07:34:55;94540.50;;;5.31;64.43
79461;BME280;68929;42.666;23.324;2023-12-20T07:37:21;94514.84;;;6.25;59.35
79461;BME280;68929;42.666;23.324;2023-12-20T07:39:47;94530.81;;;6.58;58.42
79461;BME280;68929;42.666;23.324;2023-12-20T07:42:12;94530.72;;;7.13;58.22
79461;BME280;68929;42.666;23.324;2023-12-20T07:44:38;94503.78;;;6.64;55.06
79461;BME280;68929;42.666;23.324;2023-12-20T07:47:03;94531.88;;;6.36;55.65
79461;BME280;68929;42.666;23.324;2023-12-20T07:49:30;94494.44;;;6.00;58.21
79461;BME280;68929;42.666;23.324;2023-12-20T07:51:57;94533.66;;;6.08;57.57
79461;BME280;68929;42.666;23.324;2023-12-20T07:54:22;94503.44;;;5.55;59.86
79461;BME280;68929;42.666;23.324;2023-12-20T07:56:55;94536.78;;;5.97;60.54
79461;BME280;68929;42.666;23.324;2023-12-20T07:59:20;94506.19;;;6.04;60.26
79461;BME280;68929;42.666;23.324;2023-12-20T08:01:49;94507.13;;;6.24;59.65
79461;BME280;68929;42.666;23.324;2023-12-20T08:04:15;94509.44;;;6.33;58.68
79461;BME280;68929;42.666;23.324;2023-12-20T08:06:40;94479.00;;;7.20;58.39
79461;BME280;68929;42.666;23.324;2023-12-20T08:09:05;94442.59;;;7.17;56.42
79461;BME280;68929;42.666;23.324;2023-12-20T08:11:31;94529.44;;;8.30;55.11
79461;BME280;68929;42.666;23.324;2023-12-20T08:13:56;94507.91;;;8.14;54.25
79461;BME280;68929;42.666;23.324;2023-12-20T08:16:22;94519.63;;;7.85;55.74
79461;BME280;68929;42.666;23.324;2023-12-20T08:18:47;94504.31;;;8.47;54.05
79461;BME280;68929;42.666;23.324;2023-12-20T08:21:20;94508.34;;;8.43;54.38
79461;BME280;68929;42.666;23.324;2023-12-20T08:23:47;94471.50;;;8.30;54.79
79461;BME280;68929;42.666;23.324;2023-12-20T08:26:13;94516.81;;;8.84;53.75
79461;BME280;68929;42.666;23.324;2023-12-20T08:28:42;94470.53;;;9.02;52.42
79461;BME280;68929;42.666;23.324;2023-12-20T08:31:13;94474.59;;;8.98;53.67
79461;BME280;68929;42.666;23.324;2023-12-20T08:33:39;94502.59;;;8.99;54.27
79461;BME280;68929;42.666;23.324;2023-12-20T08:36:12;94441.16;;;8.92;53.74
79461;BME280;68929;42.666;23.324;2023-12-20T08:38:38;94485.94;;;9.05;52.98
79461;BME280;68929;42.666;23.324;2023-12-20T08:41:04;94481.25;;;9.13;54.49
79461;BME280;68929;42.666;23.324;2023-12-20T08:43:31;94455.06;;;9.18;53.25
79461;BME280;68929;42.666;23.324;2023-12-20T08:45:57;94473.19;;;9.46;52.33
79461;BME280;68929;42.666;23.324;2023-12-20T08:48:22;94472.06;;;9.29;52.63
79461;BME280;68929;42.666;23.324;2023-12-20T08:50:48;94474.47;;;8.66;51.48
79461;BME280;68929;42.666;23.324;2023-12-20T08:53:15;94449.16;;;6.53;57.58
79461;BME280;68929;42.666;23.324;2023-12-20T08:55:42;94486.63;;;7.69;59.03
79461;BME280;68929;42.666;23.324;2023-12-20T08:58:07;94479.38;;;8.43;55.42
79461;BME280;68929;42.666;23.324;2023-12-20T09:00:34;94439.25;;;9.12;54.05
79461;BME280;68929;42.666;23.324;2023-12-20T09:03:00;94435.56;;;9.26;52.31
79461;BME280;68929;42.666;23.324;2023-12-20T09:05:26;94452.88;;;9.53;51.15
79461;BME280;68929;42.666;23.324;2023-12-20T09:07:51;94437.97;;;8.76;54.50
79461;BME280;68929;42.666;23.324;2023-12-20T09:10:17;94398.72;;;8.55;53.49
79461;BME280;68929;42.666;23.324;2023-12-20T09:12:53;94419.75;;;9.26;52.59
79461;BME280;68929;42.666;23.324;2023-12-20T09:15:26;94411.66;;;9.14;53.46
79461;BME280;68929;42.666;23.324;2023-12-20T09:17:52;94406.63;;;9.13;54.90
79461;BME280;68929;42.666;23.324;2023-12-20T09:20:18;94404.41;;;9.72;52.49
79461;BME280;68929;42.666;23.324;2023-12-20T09:22:43;94394.44;;;10.05;52.50
79461;BME280;68929;42.666;23.324;2023-12-20T09:25:12;94386.44;;;10.36;50.73
79461;BME280;68929;42.666;23.324;2023-12-20T09:27:38;94369.63;;;10.06;50.50
79461;BME280;68929;42.666;23.324;2023-12-20T09:30:04;94388.25;;;9.62;52.96
79461;BME280;68929;42.666;23.324;2023-12-20T09:32:31;94380.44;;;9.49;52.39
79461;BME280;68929;42.666;23.324;2023-12-20T09:34:56;94369.63;;;9.57;53.75
79461;BME280;68929;42.666;23.324;2023-12-20T09:37:26;94367.63;;;10.02;50.98
79461;BME280;68929;42.666;23.324;2023-12-20T09:39:52;94363.63;;;9.43;52.53
79461;BME280;68929;42.666;23.324;2023-12-20T09:42:26;94358.50;;;9.24;53.76
79461;BME280;68929;42.666;23.324;2023-12-20T09:45:17;94342.00;;;9.59;52.46
79461;BME280;68929;42.666;23.324;2023-12-20T09:47:51;94344.97;;;9.45;52.49
79461;BME280;68929;42.666;23.324;2023-12-20T09:50:22;94315.50;;;9.17;53.29
79461;BME280;68929;42.666;23.324;2023-12-20T09:52:54;94344.47;;;9.54;53.67
79461;BME280;68929;42.666;23.324;2023-12-20T09:55:38;94300.78;;;9.83;51.04
79461;BME280;68929;42.666;23.324;2023-12-20T09:58:06;94282.06;;;9.42;52.77
79461;BME280;68929;42.666;23.324;2023-12-20T10:00:36;94288.53;;;9.46;51.59
79461;BME280;68929;42.666;23.324;2023-12-20T10:03:33;94320.72;;;9.30;53.38
79461;BME280;68929;42.666;23.324;2023-12-20T10:06:00;94308.34;;;9.55;54.24
79461;BME280;68929;42.666;23.324;2023-12-20T10:08:25;94318.19;;;10.33;51.86
79461;BME280;68929;42.666;23.324;2023-12-20T10:10:56;94303.63;;;11.08;50.89
79461;BME280;68929;42.666;23.324;2023-12-20T10:13:31;94317.22;;;10.82;50.11
79461;BME280;68929;42.666;23.324;2023-12-20T10:15:56;94274.06;;;9.73;50.68
79461;BME280;68929;42.666;23.324;2023-12-20T10:18:22;94240.81;;;9.23;52.92
79461;BME280;68929;42.666;23.324;2023-12-20T10:20:48;94304.41;;;9.64;53.83
79461;BME280;68929;42.666;23.324;2023-12-20T10:23:21;94290.84;;;9.36;52.55
79461;BME280;68929;42.666;23.324;2023-12-20T10:25:58;94293.03;;;9.39;54.77
79461;BME280;68929;42.666;23.324;2023-12-20T10:28:23;94257.72;;;9.40;53.94
79461;BME280;68929;42.666;23.324;2023-12-20T10:30:56;94273.56;;;9.40;53.55
79461;BME280;68929;42.666;23.324;2023-12-20T10:33:32;94271.34;;;9.61;55.29
79461;BME280;68929;42.666;23.324;2023-12-20T10:35:58;94257.47;;;9.66;53.03
79461;BME280;68929;42.666;23.324;2023-12-20T10:38:23;94237.53;;;9.70;52.82
79461;BME280;68929;42.666;23.324;2023-12-20T10:40:53;94268.03;;;9.66;52.61
79461;BME280;68929;42.666;23.324;2023-12-20T10:43:26;94259.41;;;9.59;53.55
79461;BME280;68929;42.666;23.324;2023-12-20T10:45:54;94218.53;;;9.19;54.40
79461;BME280;68929;42.666;23.324;2023-12-20T10:48:19;94218.00;;;9.35;54.34
79461;BME280;68929;42.666;23.324;2023-12-20T10:50:47;94234.81;;;9.40;54.80
79461;BME280;68929;42.666;23.324;2023-12-20T10:53:13;94235.50;;;8.73;53.56
79461;BME280;68929;42.666;23.324;2023-12-20T10:55:39;94229.91;;;8.57;55.72
79461;BME280;68929;42.666;23.324;2023-12-20T10:58:08;94230.63;;;8.70;56.83
79461;BME280;68929;42.666;23.324;2023-12-20T11:00:40;94237.66;;;8.83;55.50
79461;BME280;68929;42.666;23.324;2023-12-20T11:03:11;94220.75;;;8.22;56.70
79461;BME280;68929;42.666;23.324;2023-12-20T11:06:18;94216.00;;;8.74;58.38
79461;BME280;68929;42.666;23.324;2023-12-20T11:09:09;94211.97;;;9.28;56.04
79461;BME280;68929;42.666;23.324;2023-12-20T11:12:05;94218.69;;;10.27;52.85
79461;BME280;68929;42.666;23.324;2023-12-20T11:17:10;94205.03;;;10.12;52.58
79461;BME280;68929;42.666;23.324;2023-12-20T11:22:32;94161.88;;;9.46;52.94
79461;BME280;68929;42.666;23.324;2023-12-20T11:25:09;94155.88;;;9.39;54.82
79461;BME280;68929;42.666;23.324;2023-12-20T11:27:35;94186.06;;;9.43;55.01
79461;BME280;68929;42.666;23.324;2023-12-20T11:30:03;94183.34;;;9.49;53.39
79461;BME280;68929;42.666;23.324;2023-12-20T11:32:34;94170.66;;;9.22;55.13
79461;BME280;68929;42.666;23.324;2023-12-20T11:37:39;94151.94;;;9.66;54.40
79461;BME280;68929;42.666;23.324;2023-12-20T11:40:11;94155.72;;;10.06;53.07
79461;BME280;68929;42.666;23.324;2023-12-20T11:42:45;94139.53;;;10.51;52.91
79461;BME280;68929;42.666;23.324;2023-12-20T11:45:13;94147.50;;;10.32;52.13
79461;BME280;68929;42.666;23.324;2023-12-20T11:47:45;94150.50;;;10.66;52.72
79461;BME280;68929;42.666;23.324;2023-12-20T11:50:18;94139.59;;;10.85;51.27
79461;BME280;68929;42.666;23.324;2023-12-20T11:52:44;94106.75;;;10.93;50.64
79461;BME280;68929;42.666;23.324;2023-12-20T11:55:09;94088.28;;;10.52;50.98
79461;BME280;68929;42.666;23.324;2023-12-20T11:57:35;94088.03;;;11.17;50.67
79461;BME280;68929;42.666;23.324;2023-12-20T12:00:02;94113.78;;;11.22;50.50
79461;BME280;68929;42.666;23.324;2023-12-20T12:02:28;94058.00;;;10.77;50.93
79461;BME280;68929;42.666;23.324;2023-12-20T12:04:57;94094.44;;;10.98;51.85
79461;BME280;68929;42.666;23.324;2023-12-20T12:07:36;94087.41;;;11.50;50.61
79461;BME280;68929;42.666;23.324;2023-12-20T12:10:01;94076.56;;;11.63;49.83
79461;BME280;68929;42.666;23.324;2023-12-20T12:12:28;94050.88;;;11.24;49.72
79461;BME280;68929;42.666;23.324;2023-12-20T12:14:55;94074.56;;;11.93;49.36
79461;BME280;68929;42.666;23.324;2023-12-20T12:17:23;94066.56;;;11.65;49.26
79461;BME280;68929;42.666;23.324;2023-12-20T12:19:48;94065.09;;;12.26;48.43
79461;BME280;68929;42.666;23.324;2023-12-20T12:22:14;94066.34;;;11.55;50.09
79461;BME280;68929;42.666;23.324;2023-12-20T12:24:43;94065.97;;;11.86;49.74
79461;BME280;68929;42.666;23.324;2023-12-20T12:27:16;94060.47;;;12.33;47.89
79461;BME280;68929;42.666;23.324;2023-12-20T12:30:03;94029.59;;;11.70;49.49
79461;BME280;68929;42.666;23.324;2023-12-20T12:32:29;94052.25;;;12.18;49.15
79461;BME280;68929;42.666;23.324;2023-12-20T12:34:57;94064.44;;;11.90;48.78
79461;BME280;68929;42.666;23.324;2023-12-20T12:37:22;94059.91;;;11.74;49.85
79461;BME280;68929;42.666;23.324;2023-12-20T12:39:49;94061.63;;;11.57;49.13
79461;BME280;68929;42.666;23.324;2023-12-20T12:42:20;94065.34;;;11.10;51.55
79461;BME280;68929;42.666;23.324;2023-12-20T12:44:46;94011.66;;;10.75;51.17
79461;BME280;68929;42.666;23.324;2023-12-20T12:47:15;94051.09;;;11.11;51.13
79461;BME280;68929;42.666;23.324;2023-12-20T12:49:41;93996.25;;;10.83;50.57
79461;BME280;68929;42.666;23.324;2023-12-20T12:52:06;94041.69;;;10.92;52.09
79461;BME280;68929;42.666;23.324;2023-12-20T12:54:33;94050.03;;;10.54;51.08
79461;BME280;68929;42.666;23.324;2023-12-20T12:56:58;94058.41;;;9.80;53.13
79461;BME280;68929;42.666;23.324;2023-12-20T12:59:25;94002.44;;;9.42;57.08
79461;BME280;68929;42.666;23.324;2023-12-20T13:01:51;94050.06;;;10.24;54.56